Legend — WDF9316 — position and weather

sailwx.info

Track history (hours):
 
Tides and Currents Weather Stations Pressure Air Temp Water Temp Dewpoint Dewpoint Depression Visibility Wind Speed Wind Dir Waves Ship Positions

Legend

Owner: Crowley Maritime, Seattle, WA. More information available from US FCC via Universal Licensing System and Coast Guard Vessel Documentation Center.

Last reported at 2017-Jun-20 09:38 UTC. Time now 2017-Jun-24 15:37 UTC.
Position N 25°15' W 080°04'.

Length 212 m; draft 7.8 m.

Type: Towing. MMSI: 366709000.

Date/timePositionNaut miles runAvg speedWind from/ knotsBaromVisibWave heightAir tempDewpointWater temp
2017-Jun-20 09:38N 25°15' W 080°04'1 7.4
2017-Jun-20 09:30N 25°16' W 080°03'4 7.2
2017-Jun-20 08:59N 25°19' W 080°01'3 7.0
2017-Jun-20 08:30N 25°22' W 079°60'3 6.6
2017-Jun-20 08:00N 25°25' W 079°59'3 6.7
2017-Jun-20 07:30N 25°28' W 079°59'2 3.5
2017-Jun-20 07:01N 25°30' W 080°00'19 1.1
2017-Jun-19 13:26N 25°12' W 080°06'3 6.6
2017-Jun-19 13:00N 25°14' W 080°05'3 6.6
2017-Jun-19 12:30N 25°17' W 080°03'3 6.5
2017-Jun-19 12:00N 25°20' W 080°02'3 6.3
2017-Jun-19 11:29N 25°24' W 080°01'3 7.0
2017-Jun-19 11:00N 25°27' W 080°01'4 7.4
2017-Jun-19 10:30N 25°31' W 080°01'4 7.6
2017-Jun-19 10:00N 25°34' W 080°01'4 7.7
2017-Jun-19 09:30N 25°38' W 080°01'4 8.1
2017-Jun-19 09:00N 25°42' W 080°01'4 8.3
2017-Jun-19 08:30N 25°46' W 080°01'4 8.5
2017-Jun-19 08:00N 25°51' W 080°01'4 8.5
2017-Jun-19 07:30N 25°55' W 080°01'4 8.4
2017-Jun-19 07:00N 25°59' W 080°01'4 8.0
2017-Jun-19 06:30N 26°03' W 080°01'4 7.9
2017-Jun-19 06:00N 26°05' W 080°05'3 4.9
2017-Jun-19 05:29N 26°06' W 080°07'0 0.0
2017-Jun-19 04:59N 26°06' W 080°07'0 0.0
2017-Jun-19 04:29N 26°06' W 080°07'0 0.0
2017-Jun-19 03:56N 26°06' W 080°07'0 0.0
2017-Jun-19 03:29N 26°06' W 080°07'0 0.0
2017-Jun-19 02:59N 26°06' W 080°07'0 0.0
2017-Jun-19 02:29N 26°06' W 080°07'0 0.0
2017-Jun-19 01:59N 26°06' W 080°07'0 0.0
2017-Jun-19 01:29N 26°06' W 080°07'0 0.0
2017-Jun-19 00:59N 26°06' W 080°07'0 0.0
2017-Jun-19 00:29N 26°06' W 080°07'0 0.0
2017-Jun-18 23:59N 26°06' W 080°07'0 0.0
2017-Jun-18 23:29N 26°06' W 080°07'0 0.0
2017-Jun-18 22:59N 26°06' W 080°07'0 0.0
2017-Jun-18 22:29N 26°06' W 080°07'0 0.0
2017-Jun-18 21:59N 26°06' W 080°07'0 0.0
2017-Jun-18 21:29N 26°06' W 080°07'0 0.0
2017-Jun-18 20:59N 26°06' W 080°07'0 0.0
2017-Jun-18 20:29N 26°06' W 080°07'0 0.0
2017-Jun-18 19:59N 26°06' W 080°07'0 0.0
2017-Jun-18 19:29N 26°06' W 080°07'0 0.0
2017-Jun-18 18:56N 26°06' W 080°07'0 0.0
2017-Jun-18 18:29N 26°06' W 080°07'0 0.0
2017-Jun-18 17:59N 26°06' W 080°07'0 0.0
2017-Jun-18 17:29N 26°06' W 080°07'0 0.0
2017-Jun-18 16:59N 26°06' W 080°07'0 0.0
2017-Jun-18 16:29N 26°06' W 080°07'0 0.0
2017-Jun-18 15:59N 26°06' W 080°07'0 0.0
2017-Jun-18 15:29N 26°06' W 080°07'0 0.0
2017-Jun-18 14:59N 26°06' W 080°07'0 0.0
2017-Jun-18 13:59N 26°06' W 080°07'0 0.0
2017-Jun-18 13:29N 26°06' W 080°07'0 0.0
2017-Jun-18 12:59N 26°06' W 080°07'0 0.0
2017-Jun-18 12:29N 26°06' W 080°07'0 0.0
2017-Jun-18 11:59N 26°06' W 080°07'0 0.0
2017-Jun-18 11:29N 26°06' W 080°07'0 0.0
2017-Jun-18 10:59N 26°06' W 080°07'0 0.0
2017-Jun-18 10:29N 26°06' W 080°07'0 0.0
2017-Jun-18 09:59N 26°06' W 080°07'0 0.0
2017-Jun-18 09:29N 26°06' W 080°07'0 0.0
2017-Jun-18 08:59N 26°06' W 080°07'0 0.0
2017-Jun-18 08:29N 26°06' W 080°07'0 0.0
2017-Jun-18 07:59N 26°06' W 080°07'0 0.0
2017-Jun-18 07:29N 26°06' W 080°07'0 0.0
2017-Jun-18 06:59N 26°06' W 080°07'0 0.0
2017-Jun-18 06:29N 26°06' W 080°07'0 0.0
2017-Jun-18 05:59N 26°06' W 080°07'0 0.0
2017-Jun-18 05:29N 26°06' W 080°07'0 0.0
2017-Jun-18 04:59N 26°06' W 080°07'0 0.0
2017-Jun-18 04:29N 26°06' W 080°07'0 0.0
2017-Jun-18 03:59N 26°06' W 080°07'0 0.0
2017-Jun-18 03:29N 26°06' W 080°07'0 0.0
2017-Jun-18 03:00N 26°06' W 080°07'0 0.5
2017-Jun-18 02:31N 26°06' W 080°07'3 6.5
2017-Jun-18 02:00N 26°06' W 080°03'4 8.0
2017-Jun-18 01:30N 26°02' W 080°01'511.0
2017-Jun-18 01:00N 25°57' W 080°01'3 5.8
2017-Jun-18 00:30N 25°60' W 080°01'3 6.8
2017-Jun-18 00:00N 26°03' W 080°01'4 7.0
2017-Jun-17 23:30N 26°07' W 080°01'4 7.5
2017-Jun-17 23:00N 26°10' W 080°01'4 8.0
2017-Jun-17 22:30N 26°14' W 080°01'4 8.6
2017-Jun-17 22:00N 26°19' W 080°02'4 8.8
2017-Jun-17 21:30N 26°14' W 080°02'611.6
2017-Jun-17 21:00N 26°08' W 080°02'612.5
2017-Jun-17 20:30N 26°02' W 080°01'4 8.4
2017-Jun-17 20:00N 25°58' W 080°00'4 7.6
2017-Jun-17 19:30N 26°02' W 080°01'4 7.7
2017-Jun-17 19:00N 26°06' W 080°01'4 7.7
2017-Jun-17 18:30N 26°02' W 080°01'713.5
2017-Jun-17 18:00N 25°55' W 079°60'816.6
2017-Jun-17 17:30N 25°47' W 079°59'816.9
2017-Jun-17 17:00N 25°38' W 079°58'816.9
2017-Jun-17 16:30N 25°30' W 079°58'816.9
2017-Jun-17 16:00N 25°22' W 079°58'  
Track history (hours):
 
Tides and Currents Weather Stations Pressure Air Temp Water Temp Dewpoint Dewpoint Depression Visibility Wind Speed Wind Dir Waves Ship Positions

Legend

Owner: Crowley Maritime, Seattle, WA. More information available from US FCC via Universal Licensing System and Coast Guard Vessel Documentation Center.

Last reported at 2017-Jun-20 09:38 UTC. Time now 2017-Jun-24 15:37 UTC.
Position N 25°15' W 080°04'.

Length 212 m; draft 7.8 m.

Type: Towing. MMSI: 366709000.

Date/timePositionNaut miles runAvg speedWind from/ knotsBaromVisibWave heightAir tempDewpointWater temp
2017-Jun-20 09:38N 25°15' W 080°04'1 7.4
2017-Jun-20 09:30N 25°16' W 080°03'4 7.2
2017-Jun-20 08:59N 25°19' W 080°01'3 7.0
2017-Jun-20 08:30N 25°22' W 079°60'3 6.6
2017-Jun-20 08:00N 25°25' W 079°59'3 6.7
2017-Jun-20 07:30N 25°28' W 079°59'2 3.5
2017-Jun-20 07:01N 25°30' W 080°00'19 1.1
2017-Jun-19 13:26N 25°12' W 080°06'3 6.6
2017-Jun-19 13:00N 25°14' W 080°05'3 6.6
2017-Jun-19 12:30N 25°17' W 080°03'3 6.5
2017-Jun-19 12:00N 25°20' W 080°02'3 6.3
2017-Jun-19 11:29N 25°24' W 080°01'3 7.0
2017-Jun-19 11:00N 25°27' W 080°01'4 7.4
2017-Jun-19 10:30N 25°31' W 080°01'4 7.6
2017-Jun-19 10:00N 25°34' W 080°01'4 7.7
2017-Jun-19 09:30N 25°38' W 080°01'4 8.1
2017-Jun-19 09:00N 25°42' W 080°01'4 8.3
2017-Jun-19 08:30N 25°46' W 080°01'4 8.5
2017-Jun-19 08:00N 25°51' W 080°01'4 8.5
2017-Jun-19 07:30N 25°55' W 080°01'4 8.4
2017-Jun-19 07:00N 25°59' W 080°01'4 8.0
2017-Jun-19 06:30N 26°03' W 080°01'4 7.9
2017-Jun-19 06:00N 26°05' W 080°05'3 4.9
2017-Jun-19 05:29N 26°06' W 080°07'0 0.0
2017-Jun-19 04:59N 26°06' W 080°07'0 0.0
2017-Jun-19 04:29N 26°06' W 080°07'0 0.0
2017-Jun-19 03:56N 26°06' W 080°07'0 0.0
2017-Jun-19 03:29N 26°06' W 080°07'0 0.0
2017-Jun-19 02:59N 26°06' W 080°07'0 0.0
2017-Jun-19 02:29N 26°06' W 080°07'0 0.0
2017-Jun-19 01:59N 26°06' W 080°07'0 0.0
2017-Jun-19 01:29N 26°06' W 080°07'0 0.0
2017-Jun-19 00:59N 26°06' W 080°07'0 0.0
2017-Jun-19 00:29N 26°06' W 080°07'0 0.0
2017-Jun-18 23:59N 26°06' W 080°07'0 0.0
2017-Jun-18 23:29N 26°06' W 080°07'0 0.0
2017-Jun-18 22:59N 26°06' W 080°07'0 0.0
2017-Jun-18 22:29N 26°06' W 080°07'0 0.0
2017-Jun-18 21:59N 26°06' W 080°07'0 0.0
2017-Jun-18 21:29N 26°06' W 080°07'0 0.0
2017-Jun-18 20:59N 26°06' W 080°07'0 0.0
2017-Jun-18 20:29N 26°06' W 080°07'0 0.0
2017-Jun-18 19:59N 26°06' W 080°07'0 0.0
2017-Jun-18 19:29N 26°06' W 080°07'0 0.0
2017-Jun-18 18:56N 26°06' W 080°07'0 0.0
2017-Jun-18 18:29N 26°06' W 080°07'0 0.0
2017-Jun-18 17:59N 26°06' W 080°07'0 0.0
2017-Jun-18 17:29N 26°06' W 080°07'0 0.0
2017-Jun-18 16:59N 26°06' W 080°07'0 0.0
2017-Jun-18 16:29N 26°06' W 080°07'0 0.0
2017-Jun-18 15:59N 26°06' W 080°07'0 0.0
2017-Jun-18 15:29N 26°06' W 080°07'0 0.0
2017-Jun-18 14:59N 26°06' W 080°07'0 0.0
2017-Jun-18 13:59N 26°06' W 080°07'0 0.0
2017-Jun-18 13:29N 26°06' W 080°07'0 0.0
2017-Jun-18 12:59N 26°06' W 080°07'0 0.0
2017-Jun-18 12:29N 26°06' W 080°07'0 0.0
2017-Jun-18 11:59N 26°06' W 080°07'0 0.0
2017-Jun-18 11:29N 26°06' W 080°07'0 0.0
2017-Jun-18 10:59N 26°06' W 080°07'0 0.0
2017-Jun-18 10:29N 26°06' W 080°07'0 0.0
2017-Jun-18 09:59N 26°06' W 080°07'0 0.0
2017-Jun-18 09:29N 26°06' W 080°07'0 0.0
2017-Jun-18 08:59N 26°06' W 080°07'0 0.0
2017-Jun-18 08:29N 26°06' W 080°07'0 0.0
2017-Jun-18 07:59N 26°06' W 080°07'0 0.0
2017-Jun-18 07:29N 26°06' W 080°07'0 0.0
2017-Jun-18 06:59N 26°06' W 080°07'0 0.0
2017-Jun-18 06:29N 26°06' W 080°07'0 0.0
2017-Jun-18 05:59N 26°06' W 080°07'0 0.0
2017-Jun-18 05:29N 26°06' W 080°07'0 0.0
2017-Jun-18 04:59N 26°06' W 080°07'0 0.0
2017-Jun-18 04:29N 26°06' W 080°07'0 0.0
2017-Jun-18 03:59N 26°06' W 080°07'0 0.0
2017-Jun-18 03:29N 26°06' W 080°07'0 0.0
2017-Jun-18 03:00N 26°06' W 080°07'0 0.5
2017-Jun-18 02:31N 26°06' W 080°07'3 6.5
2017-Jun-18 02:00N 26°06' W 080°03'4 8.0
2017-Jun-18 01:30N 26°02' W 080°01'511.0
2017-Jun-18 01:00N 25°57' W 080°01'3 5.8
2017-Jun-18 00:30N 25°60' W 080°01'3 6.8
2017-Jun-18 00:00N 26°03' W 080°01'4 7.0
2017-Jun-17 23:30N 26°07' W 080°01'4 7.5
2017-Jun-17 23:00N 26°10' W 080°01'4 8.0
2017-Jun-17 22:30N 26°14' W 080°01'4 8.6
2017-Jun-17 22:00N 26°19' W 080°02'4 8.8
2017-Jun-17 21:30N 26°14' W 080°02'611.6
2017-Jun-17 21:00N 26°08' W 080°02'612.5
2017-Jun-17 20:30N 26°02' W 080°01'4 8.4
2017-Jun-17 20:00N 25°58' W 080°00'4 7.6
2017-Jun-17 19:30N 26°02' W 080°01'4 7.7
2017-Jun-17 19:00N 26°06' W 080°01'4 7.7
2017-Jun-17 18:30N 26°02' W 080°01'713.5
2017-Jun-17 18:00N 25°55' W 079°60'816.6
2017-Jun-17 17:30N 25°47' W 079°59'816.9
2017-Jun-17 17:00N 25°38' W 079°58'816.9
2017-Jun-17 16:30N 25°30' W 079°58'816.9
2017-Jun-17 16:00N 25°22' W 079°58'  

Dump ship's entire track history